Time;durP1;ratioP1;P1;durP2;ratioP2;P2;SDS_P1;SDS_P2;PMS_P1;PMS_P2;Temp;Humidity;BMP_temperature;BMP_pressure;BME280_temperature;BME280_humidity;BME280_pressure;Samples;Min_cycle;Max_cycle;Signal;HPM_P1;HPM_P2
2023/01/06 00:01:24;;;;;;;1.83;0.80;;;13.60;99.90;;;;;;4943720;28;20031;-79
2023/01/06 00:03:52;;;;;;;1.77;0.70;;;11.40;99.90;;;;;;4928862;29;20094;-80
2023/01/06 00:06:19;;;;;;;2.42;1.17;;;11.40;99.90;;;;;;4938574;28;20082;-79
2023/01/06 00:08:45;;;;;;;1.52;0.82;;;11.40;99.90;;;;;;4948555;28;20023;-78
2023/01/06 00:11:12;;;;;;;1.85;0.80;;;11.30;99.90;;;;;;4950587;28;20027;-79
2023/01/06 00:13:39;;;;;;;1.88;0.70;;;11.30;99.90;;;;;;4950651;28;20031;-78
2023/01/06 00:16:10;;;;;;;2.85;0.80;;;11.30;99.90;;;;;;4940572;28;20082;-78
2023/01/06 00:18:39;;;;;;;2.47;1.15;;;11.30;99.90;;;;;;4950908;28;20046;-81
2023/01/06 00:21:06;;;;;;;2.40;0.70;;;11.30;99.90;;;;;;4943360;28;20114;-79
2023/01/06 00:23:32;;;;;;;1.92;0.70;;;11.30;99.90;;;;;;4958396;28;20027;-78
2023/01/06 00:25:58;;;;;;;2.40;1.10;;;11.30;99.90;;;;;;4957248;28;20861;-78
2023/01/06 00:28:24;;;;;;;1.52;0.70;;;11.20;99.90;;;;;;4956925;28;20036;-79
2023/01/06 00:30:50;;;;;;;2.47;0.80;;;11.20;99.90;;;;;;4957525;28;20531;-80
2023/01/06 00:33:15;;;;;;;1.40;0.80;;;12.50;99.90;;;;;;4949700;28;20032;-79
2023/01/06 00:35:41;;;;;;;1.88;0.88;;;11.20;99.90;;;;;;4938200;28;20111;-79
2023/01/06 00:38:07;;;;;;;3.58;1.73;;;11.10;99.90;;;;;;4959375;28;20043;-80
2023/01/06 00:40:35;;;;;;;1.45;0.70;;;11.10;99.90;;;;;;4973509;28;20027;-79
2023/01/06 00:43:01;;;;;;;2.00;0.95;;;11.10;99.90;;;;;;4957016;29;20062;-81
2023/01/06 00:45:27;;;;;;;3.30;1.23;;;;;;;;;;4972770;28;20031;-81
2023/01/06 00:47:52;;;;;;;1.98;0.95;;;11.10;99.90;;;;;;4969174;28;20031;-80
2023/01/06 00:50:18;;;;;;;1.30;0.80;;;;;;;;;;4970489;28;20180;-80
2023/01/06 00:52:48;;;;;;;1.70;0.90;;;11.10;99.90;;;;;;4977075;28;20011;-80
2023/01/06 00:55:15;;;;;;;3.20;0.90;;;10.40;99.90;;;;;;4955468;28;20099;-78
2023/01/06 00:57:40;;;;;;;1.77;0.70;;;11.10;99.90;;;;;;4976975;28;20067;-80
2023/01/06 01:00:10;;;;;;;2.47;1.10;;;13.50;99.90;;;;;;4977840;28;20019;-80
2023/01/06 01:02:36;;;;;;;1.70;0.90;;;;;;;;;;4971339;28;20067;-80
2023/01/06 01:05:02;;;;;;;1.65;0.80;;;11.00;99.90;;;;;;4974652;28;20026;-80
2023/01/06 01:07:28;;;;;;;1.42;0.85;;;;;;;;;;4960413;28;20031;-81
2023/01/06 01:09:54;;;;;;;3.13;0.90;;;11.10;99.90;;;;;;4972246;28;20033;-80
2023/01/06 01:12:20;;;;;;;3.80;1.63;;;11.10;99.90;;;;;;4976431;28;20027;-82
2023/01/06 01:14:54;;;;;;;1.58;0.80;;;11.10;99.90;;;;;;4981790;28;20046;-80
2023/01/06 01:17:26;;;;;;;1.58;0.68;;;11.10;99.90;;;;;;4981029;28;20023;-79
2023/01/06 01:19:56;;;;;;;2.78;0.90;;;11.10;99.90;;;;;;4978271;28;20059;-80
2023/01/06 01:22:24;;;;;;;0.50;0.47;;;11.00;99.90;;;;;;4958317;28;20032;-82
2023/01/06 01:24:50;;;;;;;2.60;0.70;;;11.00;99.90;;;;;;4980188;28;20038;-83
2023/01/06 01:27:17;;;;;;;1.65;0.80;;;;;;;;;;4957743;28;20011;-82
2023/01/06 01:29:43;;;;;;;1.08;0.70;;;;;;;;;;4977850;28;20016;-80
2023/01/06 01:32:09;;;;;;;3.20;0.98;;;;;;;;;;4974873;28;20027;-80
2023/01/06 01:34:35;;;;;;;2.38;0.70;;;;;;;;;;4968992;28;20011;-79
2023/01/06 01:37:01;;;;;;;3.67;1.15;;;10.80;99.90;;;;;;4970722;28;20036;-81
2023/01/06 01:39:28;;;;;;;2.47;0.75;;;10.70;99.90;;;;;;4970396;28;20043;-79
2023/01/06 01:41:55;;;;;;;2.42;0.95;;;10.70;99.90;;;;;;4972081;28;20035;-80
2023/01/06 01:44:57;;;;;;;2.20;0.70;;;10.80;99.90;;;;;;4978056;28;20023;-80
2023/01/06 01:47:41;;;;;;;2.45;0.98;;;10.80;99.90;;;;;;4963830;28;20027;-80
2023/01/06 01:50:28;;;;;;;1.88;0.90;;;10.80;99.90;;;;;;4955871;28;20031;-80
2023/01/06 01:53:18;;;;;;;3.78;0.93;;;10.80;99.90;;;;;;4974952;28;20042;-81
2023/01/06 01:55:47;;;;;;;2.63;0.98;;;;;;;;;;4963340;28;20046;-80
2023/01/06 01:58:23;;;;;;;2.88;0.80;;;10.80;99.90;;;;;;4972319;28;20067;-80
2023/01/06 02:00:51;;;;;;;3.95;0.88;;;10.80;99.90;;;;;;4945284;28;20034;-80
2023/01/06 02:03:25;;;;;;;1.58;0.82;;;10.80;99.90;;;;;;4980539;28;20030;-81
2023/01/06 02:05:58;;;;;;;2.83;0.90;;;10.80;99.90;;;;;;4963678;28;20012;-81
2023/01/06 02:08:37;;;;;;;1.73;0.82;;;10.80;99.90;;;;;;4972295;28;20031;-81
2023/01/06 02:11:09;;;;;;;3.60;0.85;;;10.90;99.90;;;;;;4978198;28;20008;-82
2023/01/06 02:13:38;;;;;;;1.27;0.70;;;10.80;99.90;;;;;;4962811;28;20022;-81
2023/01/06 02:16:28;;;;;;;2.75;1.27;;;10.80;99.90;;;;;;4981610;28;20031;-80
2023/01/06 02:19:36;;;;;;;2.88;1.10;;;10.80;99.90;;;;;;4974926;28;20052;-82
2023/01/06 02:22:11;;;;;;;2.47;1.10;;;10.80;99.90;;;;;;4978154;28;20035;-78
2023/01/06 02:25:06;;;;;;;2.13;0.95;;;10.80;99.90;;;;;;4975039;28;20045;-79
2023/01/06 02:27:52;;;;;;;2.03;0.90;;;10.80;99.90;;;;;;4976255;28;20019;-81
2023/01/06 02:30:57;;;;;;;2.78;0.90;;;10.70;99.90;;;;;;4954767;28;20031;-81
2023/01/06 02:33:44;;;;;;;1.75;0.90;;;10.70;99.90;;;;;;4979221;28;20071;-81
2023/01/06 02:36:36;;;;;;;1.23;0.77;;;10.80;99.90;;;;;;4973293;28;20016;-80
2023/01/06 02:39:02;;;;;;;2.00;1.10;;;;;;;;;;4975808;28;20025;-78
2023/01/06 02:41:49;;;;;;;2.05;0.70;;;10.70;99.90;;;;;;4975906;28;20058;-80
2023/01/06 02:44:32;;;;;;;2.00;0.90;;;10.80;99.90;;;;;;4973311;28;20015;-81
2023/01/06 02:47:14;;;;;;;2.58;0.80;;;13.90;99.90;;;;;;4973509;29;20077;-81
2023/01/06 02:49:52;;;;;;;2.60;0.82;;;10.70;99.90;;;;;;4974158;28;20020;-80
2023/01/06 02:52:56;;;;;;;4.78;0.80;;;10.20;99.90;;;;;;4973794;28;20035;-80
2023/01/06 02:55:22;;;;;;;1.15;0.70;;;;;;;;;;4967023;28;20091;-81
2023/01/06 02:58:22;;;;;;;3.25;0.98;;;10.70;99.90;;;;;;4967103;28;20151;-81
2023/01/06 03:00:59;;;;;;;1.05;0.60;;;10.70;99.90;;;;;;4975071;28;20032;-81
2023/01/06 03:03:29;;;;;;;1.75;0.70;;;10.70;99.90;;;;;;4978633;28;20023;-81
2023/01/06 03:06:02;;;;;;;1.33;0.75;;;10.70;99.90;;;;;;4958434;28;20016;-78
2023/01/06 03:08:30;;;;;;;2.67;0.80;;;10.60;99.90;;;;;;4970229;28;20024;-80
2023/01/06 03:10:59;;;;;;;1.23;0.70;;;10.60;99.90;;;;;;4971331;28;20035;-81
2023/01/06 03:13:47;;;;;;;1.40;0.60;;;10.60;99.90;;;;;;4978473;28;20015;-81
2023/01/06 03:16:13;;;;;;;0.85;0.70;;;10.40;99.90;;;;;;4974048;28;20059;-80
2023/01/06 03:18:43;;;;;;;3.40;0.70;;;10.70;99.90;;;;;;4966274;28;20032;-81
2023/01/06 03:21:13;;;;;;;1.38;0.70;;;10.70;99.90;;;;;;4975045;28;20028;-82
2023/01/06 03:23:40;;;;;;;1.65;0.73;;;10.70;99.90;;;;;;4957574;28;20007;-80
2023/01/06 03:26:08;;;;;;;2.03;0.70;;;10.60;99.90;;;;;;4971674;28;20031;-81
2023/01/06 03:28:36;;;;;;;1.13;0.60;;;10.50;99.90;;;;;;4975460;28;20019;-79
2023/01/06 03:31:42;;;;;;;1.03;0.50;;;10.60;99.90;;;;;;4971296;28;20075;-80
2023/01/06 03:34:41;;;;;;;1.58;0.75;;;10.50;99.90;;;;;;4967092;28;20339;-82
2023/01/06 03:37:15;;;;;;;0.77;0.43;;;13.60;99.90;;;;;;4977762;28;20039;-80
2023/01/06 03:40:05;;;;;;;1.27;0.70;;;10.50;99.90;;;;;;4973751;28;20086;-81
2023/01/06 03:45:42;;;;;;;1.70;0.50;;;10.50;99.90;;;;;;4977404;28;20050;-81
2023/01/06 03:48:23;;;;;;;2.00;0.60;;;10.50;99.90;;;;;;4974651;28;20026;-82
2023/01/06 03:50:58;;;;;;;;;;;10.00;99.90;;;;;;4972323;28;20026;-81
2023/01/06 03:54:06;;;;;;;1.95;0.50;;;10.50;99.90;;;;;;4964090;28;19898;-79
2023/01/06 03:56:41;;;;;;;0.80;0.50;;;10.50;99.90;;;;;;4970398;28;20043;-80
2023/01/06 03:59:12;;;;;;;2.15;0.73;;;10.50;99.90;;;;;;4968953;28;20314;-81
2023/01/06 06:43:03;;;;;;;3.60;1.23;;;10.20;99.90;;;;;;5000180;28;20070;-85
2023/01/06 06:46:27;;;;;;;3.13;0.90;;;10.20;99.90;;;;;;4971868;28;20030;-87
2023/01/06 06:49:04;;;;;;;4.65;1.10;;;10.20;99.90;;;;;;4983401;28;20102;-86
2023/01/06 06:51:50;;;;;;;1.52;0.75;;;10.20;99.90;;;;;;5003343;28;20121;-84
2023/01/06 06:54:42;;;;;;;2.72;1.10;;;10.20;99.90;;;;;;4997534;28;20087;-84
2023/01/06 06:57:16;;;;;;;3.88;1.20;;;10.20;99.90;;;;;;4983830;28;20418;-83
2023/01/06 07:00:20;;;;;;;2.53;0.90;;;10.20;99.90;;;;;;5002619;28;20036;-87
2023/01/06 07:03:11;;;;;;;3.03;1.00;;;10.20;99.90;;;;;;5004554;28;20026;-87
2023/01/06 07:05:56;;;;;;;2.03;1.13;;;10.10;99.90;;;;;;5008749;28;20050;-85
2023/01/06 07:08:34;;;;;;;5.90;1.10;;;10.20;99.90;;;;;;5003028;28;20080;-86
2023/01/06 07:11:24;;;;;;;2.50;1.17;;;10.10;99.90;;;;;;5018104;28;20037;-88
2023/01/06 08:10:45;;;;;;;5.43;1.73;;;10.10;99.90;;;;;;4981564;26;20051;-86
2023/01/06 08:13:17;;;;;;;3.35;1.20;;;10.20;99.90;;;;;;4964038;28;20031;-86
2023/01/06 08:15:53;;;;;;;3.17;1.30;;;10.20;99.90;;;;;;4962479;28;20082;-86
2023/01/06 08:19:02;;;;;;;2.05;1.38;;;10.20;99.90;;;;;;4949639;28;20046;-87
2023/01/06 08:21:39;;;;;;;3.95;1.30;;;10.20;99.90;;;;;;4981837;28;20027;-86
2023/01/06 08:24:12;;;;;;;5.72;1.80;;;10.20;99.90;;;;;;4976880;28;20031;-88
2023/01/06 08:27:24;;;;;;;5.53;1.33;;;10.30;99.90;;;;;;4980454;28;20074;-87
2023/01/06 08:29:59;;;;;;;5.22;1.20;;;10.30;99.90;;;;;;4962906;28;20038;-88
2023/01/06 08:32:49;;;;;;;6.32;1.35;;;10.30;99.90;;;;;;4980443;28;20035;-86
2023/01/06 08:35:18;;;;;;;3.03;1.42;;;10.30;99.90;;;;;;4964120;28;20117;-84
2023/01/06 08:37:46;;;;;;;2.28;1.08;;;10.30;99.90;;;;;;4947938;28;20045;-85
2023/01/06 08:40:15;;;;;;;3.17;1.30;;;10.30;99.90;;;;;;4944423;28;20106;-85
2023/01/06 08:42:46;;;;;;;3.35;1.10;;;10.30;99.90;;;;;;4972325;28;20327;-88
2023/01/06 08:45:24;;;;;;;3.83;1.60;;;10.20;99.90;;;;;;4997271;28;20031;-86
2023/01/06 08:47:52;;;;;;;5.47;1.50;;;10.20;99.90;;;;;;4946782;28;20053;-85
2023/01/06 08:50:22;;;;;;;3.00;1.50;;;10.30;99.90;;;;;;4962634;28;20090;-87
2023/01/06 08:53:35;;;;;;;2.88;1.58;;;10.30;99.90;;;;;;4980802;28;20054;-85
2023/01/06 08:56:27;;;;;;;8.30;2.67;;;10.30;99.90;;;;;;4981813;28;20232;-85
2023/01/06 08:59:05;;;;;;;5.22;1.50;;;10.30;99.90;;;;;;4971270;28;20018;-85
2023/01/06 09:01:36;;;;;;;6.05;2.03;;;10.30;99.90;;;;;;4968319;28;20034;-86
2023/01/06 09:04:16;;;;;;;4.85;1.80;;;;;;;;;;4985176;28;20059;-85
2023/01/06 09:07:46;;;;;;;5.20;1.90;;;10.40;99.90;;;;;;4964466;28;20046;-86
2023/01/06 09:14:23;;;;;;;3.17;1.85;;;10.50;99.90;;;;;;4911550;28;20077;-84
2023/01/06 09:17:06;;;;;;;4.30;1.60;;;10.40;99.90;;;;;;4953470;28;20035;-85
2023/01/06 09:19:41;;;;;;;5.18;1.88;;;10.40;99.90;;;;;;4976914;28;20046;-88
2023/01/06 09:46:00;;;;;;;3.85;1.33;;;10.60;99.90;;;;;;4916644;28;20039;-84
2023/01/06 09:48:57;;;;;;;5.85;1.52;;;10.60;99.90;;;;;;4963410;28;20121;-82
2023/01/06 09:51:25;;;;;;;5.53;1.30;;;10.70;99.90;;;;;;4945587;28;20035;-86
2023/01/06 09:53:57;;;;;;;3.55;1.30;;;10.60;99.90;;;;;;4954091;28;20027;-87
2023/01/06 09:56:24;;;;;;;4.05;1.25;;;10.70;99.90;;;;;;4952821;28;20089;-83
2023/01/06 09:59:27;;;;;;;2.92;1.30;;;10.70;99.90;;;;;;4956321;28;20038;-88
2023/01/06 10:01:54;;;;;;;4.28;1.30;;;10.70;99.90;;;;;;4958959;28;20662;-87
2023/01/06 10:04:29;;;;;;;4.75;1.30;;;10.80;99.90;;;;;;4956122;28;20023;-84
2023/01/06 10:07:14;;;;;;;4.30;1.40;;;10.80;99.90;;;;;;4954067;28;20079;-84
2023/01/06 10:10:16;;;;;;;3.28;1.75;;;10.90;99.90;;;;;;4952867;28;20160;-87
2023/01/06 10:12:53;;;;;;;1.95;1.20;;;11.00;99.90;;;;;;4951744;28;20078;-82
2023/01/06 10:15:41;;;;;;;2.90;1.25;;;10.90;99.90;;;;;;4968855;28;20031;-83
2023/01/06 10:18:53;;;;;;;6.38;1.20;;;10.90;99.90;;;;;;4957367;28;20034;-81
2023/01/06 10:21:32;;;;;;;2.60;0.90;;;11.00;99.90;;;;;;4937050;28;20038;-86
2023/01/06 10:24:04;;;;;;;4.53;1.20;;;11.10;99.90;;;;;;4964131;28;20038;-85
2023/01/06 10:26:31;;;;;;;3.83;1.60;;;11.00;99.90;;;;;;4955399;28;20637;-85
2023/01/06 10:29:11;;;;;;;2.55;1.20;;;11.00;99.90;;;;;;4951606;28;20126;-84
2023/01/06 10:31:41;;;;;;;3.67;1.13;;;11.00;99.90;;;;;;4965049;28;20031;-88
2023/01/06 10:34:18;;;;;;;1.52;0.90;;;11.80;99.90;;;;;;4957840;28;20026;-83
2023/01/06 10:36:47;;;;;;;4.97;1.10;;;11.00;99.90;;;;;;4959355;28;20069;-83
2023/01/06 10:39:16;;;;;;;4.40;1.35;;;11.10;99.90;;;;;;4975573;28;20023;-86
2023/01/06 10:42:54;;;;;;;2.58;1.38;;;11.20;99.90;;;;;;4954399;28;20041;-86
2023/01/06 10:44:42;;;;;;;2.78;1.15;;;11.30;99.90;;;;;;4971653;28;20596;-81
2023/01/06 10:47:19;;;;;;;4.45;1.00;;;11.30;99.90;;;;;;4953512;28;20094;-84
2023/01/06 10:49:45;;;;;;;3.53;1.67;;;11.90;99.90;;;;;;4958366;28;20491;-85
2023/01/06 10:52:12;;;;;;;6.75;1.40;;;11.30;99.90;;;;;;4955606;28;20042;-85
2023/01/06 10:54:39;;;;;;;3.35;1.13;;;12.70;99.90;;;;;;4974716;28;20029;-84
2023/01/06 10:57:14;;;;;;;5.75;1.48;;;11.40;99.90;;;;;;4956700;28;20026;-84
2023/01/06 11:00:17;;;;;;;2.22;0.95;;;11.30;99.90;;;;;;4969944;28;20054;-87
2023/01/06 11:02:51;;;;;;;2.92;0.95;;;11.30;99.90;;;;;;4917139;29;20179;-85
2023/01/06 11:05:19;;;;;;;3.55;0.80;;;11.40;99.90;;;;;;4969625;28;20035;-83
2023/01/06 11:07:53;;;;;;;2.42;0.90;;;11.40;99.90;;;;;;4972917;28;20027;-85
2023/01/06 11:10:43;;;;;;;2.47;1.10;;;11.50;99.90;;;;;;5052799;23;20042;-80
2023/01/06 11:13:38;;;;;;;2.72;1.10;;;11.50;99.90;;;;;;4968999;28;20631;-81
2023/01/06 11:16:29;;;;;;;3.08;1.30;;;11.60;99.90;;;;;;4957843;28;20042;-79
2023/01/06 11:19:20;;;;;;;1.70;1.00;;;11.60;99.90;;;;;;4937849;28;20053;-80
2023/01/06 11:21:46;;;;;;;2.53;1.00;;;11.60;99.90;;;;;;4952872;28;20039;-79
2023/01/06 11:24:23;;;;;;;1.38;0.80;;;11.60;99.90;;;;;;4946995;28;20807;-79
2023/01/06 11:26:59;;;;;;;1.90;0.95;;;11.60;99.90;;;;;;4970916;28;20029;-80
2023/01/06 11:29:32;;;;;;;2.08;1.08;;;11.50;99.90;;;;;;4949374;28;20397;-79
2023/01/06 11:32:05;;;;;;;2.28;1.02;;;11.50;99.90;;;;;;4946613;28;20529;-79
2023/01/06 11:34:34;;;;;;;2.72;0.93;;;11.50;99.90;;;;;;4940341;28;20031;-80
2023/01/06 11:37:04;;;;;;;2.83;1.00;;;11.40;99.90;;;;;;4947420;28;20500;-80
2023/01/06 11:39:33;;;;;;;;;;;11.50;99.90;;;;;;4953849;28;20054;-79
2023/01/06 11:42:12;;;;;;;1.83;1.10;;;11.40;99.90;;;;;;4965273;28;19917;-79
2023/01/06 11:44:41;;;;;;;2.33;1.05;;;11.30;99.90;;;;;;4972450;28;21663;-80
2023/01/06 11:47:20;;;;;;;2.17;0.93;;;11.40;99.90;;;;;;4974343;28;20007;-79
2023/01/06 11:49:55;;;;;;;3.95;0.82;;;11.30;99.90;;;;;;4962414;28;20110;-79
2023/01/06 11:52:32;;;;;;;4.88;0.93;;;11.20;99.90;;;;;;4956450;28;20067;-80
2023/01/06 11:55:22;;;;;;;2.53;1.00;;;11.20;99.90;;;;;;4961712;28;20041;-80
2023/01/06 11:58:44;;;;;;;1.17;0.80;;;11.20;99.90;;;;;;4944888;28;20508;-82
2023/01/06 12:01:32;;;;;;;3.08;1.20;;;11.10;99.90;;;;;;4855254;29;20045;-79
2023/01/06 12:04:21;;;;;;;3.20;1.30;;;11.00;99.90;;;;;;4952150;28;20030;-78
2023/01/06 12:06:55;;;;;;;2.38;1.13;;;11.00;99.90;;;;;;4936508;28;20038;-81
2023/01/06 12:09:35;;;;;;;2.53;1.10;;;11.10;99.90;;;;;;4947219;28;20357;-80
2023/01/06 12:12:09;;;;;;;2.47;1.10;;;11.10;99.90;;;;;;4972029;28;20038;-82
2023/01/06 12:14:40;;;;;;;1.92;1.10;;;11.10;99.90;;;;;;4964141;28;20061;-78
2023/01/06 12:27:47;;;;;;;3.25;1.50;;;11.10;99.90;;;;;;4983344;28;20042;-80
2023/01/06 12:30:25;;;;;;;3.53;1.40;;;11.10;99.90;;;;;;4945099;28;20042;-77
2023/01/06 12:32:57;;;;;;;5.07;1.50;;;11.10;99.90;;;;;;4965046;28;20050;-79
2023/01/06 12:35:28;;;;;;;3.53;1.20;;;11.10;99.90;;;;;;4946528;28;20554;-78
2023/01/06 12:38:29;;;;;;;2.95;1.30;;;11.10;99.90;;;;;;4946797;28;20035;-80
2023/01/06 12:41:05;;;;;;;2.90;1.20;;;11.20;99.90;;;;;;4945180;28;20070;-80
2023/01/06 12:43:37;;;;;;;3.03;1.40;;;11.30;99.90;;;;;;4932470;29;20031;-79
2023/01/06 12:46:33;;;;;;;2.50;1.00;;;11.30;99.90;;;;;;4953139;28;20038;-80
2023/01/06 12:49:11;;;;;;;7.43;3.28;;;11.20;99.90;;;;;;4951855;28;20110;-78
2023/01/06 12:51:47;;;;;;;2.67;1.38;;;11.30;99.90;;;;;;4946559;28;20369;-80
2023/01/06 12:54:31;;;;;;;4.00;1.30;;;11.30;99.90;;;;;;4953766;28;20051;-79
2023/01/06 12:57:25;;;;;;;3.67;1.58;;;11.40;99.90;;;;;;4961275;28;20027;-80
2023/01/06 13:00:12;;;;;;;3.17;1.10;;;11.50;99.90;;;;;;4959837;29;20128;-79
2023/01/06 13:02:51;;;;;;;1.73;0.90;;;11.50;99.90;;;;;;4967491;28;20027;-80
2023/01/06 13:05:36;;;;;;;1.48;0.80;;;11.60;99.90;;;;;;4965654;28;20023;-81
2023/01/06 13:08:36;;;;;;;2.85;1.38;;;11.40;99.90;;;;;;4951715;28;20035;-79
2023/01/06 13:11:11;;;;;;;2.60;1.00;;;11.40;99.90;;;;;;4949668;28;20041;-80
2023/01/06 13:13:52;;;;;;;1.48;0.90;;;11.40;99.90;;;;;;4962089;28;20039;-79
2023/01/06 13:16:25;;;;;;;1.27;0.77;;;11.40;99.90;;;;;;4962898;28;20144;-81
2023/01/06 13:19:15;;;;;;;1.60;0.80;;;11.40;99.90;;;;;;4954606;28;20099;-79
2023/01/06 13:21:46;;;;;;;2.10;1.00;;;11.40;99.90;;;;;;4951987;28;20062;-79
2023/01/06 13:24:31;;;;;;;1.23;0.70;;;11.40;99.90;;;;;;4956536;28;20027;-81
2023/01/06 13:27:38;;;;;;;1.40;0.80;;;11.40;99.90;;;;;;4948225;28;20027;-80
2023/01/06 13:31:01;;;;;;;0.80;0.70;;;11.50;99.90;;;;;;4947803;28;20063;-80
2023/01/06 13:33:59;;;;;;;1.77;0.90;;;11.50;99.90;;;;;;4947916;28;20050;-80
2023/01/06 13:36:51;;;;;;;1.48;0.80;;;11.50;99.90;;;;;;4962718;28;20031;-79
2023/01/06 13:39:29;;;;;;;2.50;0.70;;;11.50;99.90;;;;;;4961155;28;20024;-79
2023/01/06 13:42:00;;;;;;;1.02;0.80;;;11.30;99.90;;;;;;4948937;28;20035;-80
2023/01/06 13:44:30;;;;;;;2.83;1.10;;;11.30;99.90;;;;;;4945060;28;20019;-80
2023/01/06 13:47:10;;;;;;;2.22;1.10;;;11.30;99.90;;;;;;4949821;28;20047;-80
2023/01/06 13:49:41;;;;;;;2.20;0.90;;;11.40;99.90;;;;;;4961167;29;20039;-81
2023/01/06 13:52:16;;;;;;;1.90;0.75;;;11.20;99.90;;;;;;4961689;29;20035;-81
2023/01/06 13:54:42;;;;;;;3.25;1.00;;;11.20;99.90;;;;;;4961697;29;20030;-80
2023/01/06 13:57:21;;;;;;;1.88;1.02;;;11.30;99.90;;;;;;4978416;28;20058;-80
2023/01/06 13:59:48;;;;;;;2.17;1.30;;;11.20;99.90;;;;;;4978654;28;20059;-80
2023/01/06 14:02:33;;;;;;;3.95;1.30;;;11.10;99.90;;;;;;4977717;28;20050;-80
2023/01/06 14:05:22;;;;;;;3.22;0.88;;;11.10;99.90;;;;;;4977997;28;20043;-80
2023/01/06 14:08:03;;;;;;;2.15;1.08;;;11.00;99.90;;;;;;4968560;28;20094;-80
2023/01/06 14:10:55;;;;;;;1.63;0.82;;;11.00;99.90;;;;;;4967873;28;20067;-81
2023/01/06 14:29:01;;;;;;;2.25;0.90;;;10.80;99.90;;;;;;4982333;28;20069;-79
2023/01/06 14:32:24;;;;;;;3.75;0.93;;;10.80;99.90;;;;;;4983978;28;20025;-80
2023/01/06 14:35:59;;;;;;;1.70;0.70;;;10.80;99.90;;;;;;4964734;28;20029;-80
2023/01/06 14:39:32;;;;;;;1.95;0.98;;;10.80;99.90;;;;;;4901479;29;20048;-78
2023/01/06 14:43:04;;;;;;;3.33;0.90;;;10.80;99.90;;;;;;4961516;28;20020;-79
2023/01/06 14:45:57;;;;;;;2.53;0.82;;;10.80;99.90;;;;;;4969856;28;20031;-79
2023/01/06 14:48:28;;;;;;;2.22;1.10;;;10.90;99.90;;;;;;4950472;29;20059;-80
2023/01/06 14:51:04;;;;;;;1.05;0.80;;;10.80;99.90;;;;;;4930311;29;20090;-81
2023/01/06 14:53:44;;;;;;;2.97;1.52;;;10.80;99.90;;;;;;4926100;29;20035;-79
2023/01/06 14:56:26;;;;;;;1.75;0.90;;;10.70;99.90;;;;;;4962082;29;20035;-80
2023/01/06 14:59:05;;;;;;;3.17;1.10;;;10.80;99.90;;;;;;4944558;29;20579;-80
2023/01/06 15:01:37;;;;;;;3.70;1.00;;;11.70;99.90;;;;;;4943942;29;20024;-80
2023/01/06 15:15:17;;;;;;;2.63;1.45;;;10.80;99.90;;;;;;5004852;28;20076;-79
2023/01/06 15:17:48;;;;;;;3.80;1.80;;;10.70;99.90;;;;;;4992056;28;20169;-78
2023/01/06 15:20:15;;;;;;;2.70;1.58;;;8.40;99.90;;;;;;4988521;28;20029;-80
2023/01/06 15:22:50;;;;;;;6.10;2.63;;;10.70;99.90;;;;;;4987823;28;20014;-81
2023/01/06 15:25:38;;;;;;;4.18;1.88;;;10.60;99.90;;;;;;4991702;28;20022;-79
2023/01/06 15:28:30;;;;;;;3.10;2.03;;;10.60;99.90;;;;;;4979425;28;20015;-80
2023/01/06 15:30:58;;;;;;;4.55;1.90;;;10.60;99.90;;;;;;4988756;28;20034;-79
2023/01/06 15:33:46;;;;;;;6.75;3.25;;;10.60;99.90;;;;;;5004263;28;20027;-79
2023/01/06 15:36:23;;;;;;;3.55;2.28;;;10.60;99.90;;;;;;4976615;28;20037;-80
2023/01/06 15:38:57;;;;;;;5.00;2.38;;;10.80;99.90;;;;;;5012797;28;20145;-79
2023/01/06 15:41:55;;;;;;;;;;;;;;;;;;;;;
2023/01/06 15:51:27;;;;;;;4.95;3.08;;;10.60;99.90;;;;;;5011990;23;20094;-80
2023/01/06 15:54:09;;;;;;;3.83;2.63;;;10.60;99.90;;;;;;4989012;28;20035;-82
2023/01/06 15:57:02;;;;;;;4.18;2.90;;;10.60;99.90;;;;;;4983788;28;20432;-82
2023/01/06 15:59:55;;;;;;;5.47;3.22;;;10.60;99.90;;;;;;4938258;28;20038;-81
2023/01/06 20:29:23;;;;;;;3.67;2.20;;;10.10;99.90;;;;;;4990159;28;20047;-86
2023/01/06 21:05:55;;;;;;;6.53;2.38;;;10.10;99.90;;;;;;5016905;28;20054;-84
2023/01/06 21:09:31;;;;;;;4.05;2.42;;;10.10;99.90;;;;;;4909469;28;20036;-86
